sensor_id;sensor_type;location;lat;lon;timestamp;temperature;humidity
78455;SHT31;67751;51.986;5.696;2023-03-05T00:02:22;7.8;64.2
78455;SHT31;67751;51.986;5.696;2023-03-05T00:04:52;7.8;64.2
78455;SHT31;67751;51.986;5.696;2023-03-05T00:07:22;7.9;64.5
78455;SHT31;67751;51.986;5.696;2023-03-05T00:09:51;7.9;64.2
78455;SHT31;67751;51.986;5.696;2023-03-05T00:12:21;7.9;64.4
78455;SHT31;67751;51.986;5.696;2023-03-05T00:14:50;7.9;64.5
78455;SHT31;67751;51.986;5.696;2023-03-05T00:17:20;7.9;64.5
78455;SHT31;67751;51.986;5.696;2023-03-05T00:19:49;7.9;64.4
78455;SHT31;67751;51.986;5.696;2023-03-05T00:22:19;7.9;64.4
78455;SHT31;67751;51.986;5.696;2023-03-05T00:24:51;7.9;63.9
78455;SHT31;67751;51.986;5.696;2023-03-05T00:27:23;7.9;64.2
78455;SHT31;67751;51.986;5.696;2023-03-05T00:29:52;7.9;64.3
78455;SHT31;67751;51.986;5.696;2023-03-05T00:32:22;7.8;64.8
78455;SHT31;67751;51.986;5.696;2023-03-05T00:34:51;7.8;64.0
78455;SHT31;67751;51.986;5.696;2023-03-05T00:37:21;7.8;64.2
78455;SHT31;67751;51.986;5.696;2023-03-05T00:39:50;7.8;64.3
78455;SHT31;67751;51.986;5.696;2023-03-05T00:42:22;7.8;64.3
78455;SHT31;67751;51.986;5.696;2023-03-05T00:44:51;7.8;64.4
78455;SHT31;67751;51.986;5.696;2023-03-05T00:47:21;7.8;63.7
78455;SHT31;67751;51.986;5.696;2023-03-05T00:49:50;7.8;63.8
78455;SHT31;67751;51.986;5.696;2023-03-05T00:52:20;7.8;63.9
78455;SHT31;67751;51.986;5.696;2023-03-05T00:54:50;7.8;63.9
78455;SHT31;67751;51.986;5.696;2023-03-05T00:57:19;7.8;63.9
78455;SHT31;67751;51.986;5.696;2023-03-05T00:59:49;7.8;64.0
78455;SHT31;67751;51.986;5.696;2023-03-05T01:02:19;7.8;63.9
78455;SHT31;67751;51.986;5.696;2023-03-05T01:04:48;7.8;63.9
78455;SHT31;67751;51.986;5.696;2023-03-05T01:07:18;7.8;64.0
78455;SHT31;67751;51.986;5.696;2023-03-05T01:09:47;7.8;63.9
78455;SHT31;67751;51.986;5.696;2023-03-05T01:12:17;7.8;63.6
78455;SHT31;67751;51.986;5.696;2023-03-05T01:14:46;7.8;63.3
78455;SHT31;67751;51.986;5.696;2023-03-05T01:17:16;7.8;63.5
78455;SHT31;67751;51.986;5.696;2023-03-05T01:19:47;7.8;63.3
78455;SHT31;67751;51.986;5.696;2023-03-05T01:22:17;7.8;63.3
78455;SHT31;67751;51.986;5.696;2023-03-05T01:24:47;7.8;63.2
78455;SHT31;67751;51.986;5.696;2023-03-05T01:27:16;7.8;63.2
78455;SHT31;67751;51.986;5.696;2023-03-05T01:29:46;7.8;63.6
78455;SHT31;67751;51.986;5.696;2023-03-05T01:32:15;7.7;63.8
78455;SHT31;67751;51.986;5.696;2023-03-05T01:34:47;7.7;63.8
78455;SHT31;67751;51.986;5.696;2023-03-05T01:37:16;7.7;63.5
78455;SHT31;67751;51.986;5.696;2023-03-05T01:39:46;7.7;63.8
78455;SHT31;67751;51.986;5.696;2023-03-05T01:42:15;7.7;63.9
78455;SHT31;67751;51.986;5.696;2023-03-05T01:45:00;7.7;63.9
78455;SHT31;67751;51.986;5.696;2023-03-05T01:47:32;7.7;63.8
78455;SHT31;67751;51.986;5.696;2023-03-05T01:50:03;7.7;63.8
78455;SHT31;67751;51.986;5.696;2023-03-05T01:52:35;7.7;63.7
78455;SHT31;67751;51.986;5.696;2023-03-05T01:55:09;7.7;63.7
78455;SHT31;67751;51.986;5.696;2023-03-05T01:57:44;7.7;63.8
78455;SHT31;67751;51.986;5.696;2023-03-05T02:00:17;7.7;63.7
78455;SHT31;67751;51.986;5.696;2023-03-05T02:02:51;7.7;63.7
78455;SHT31;67751;51.986;5.696;2023-03-05T02:05:25;7.7;64.1
78455;SHT31;67751;51.986;5.696;2023-03-05T02:07:56;7.7;64.1
78455;SHT31;67751;51.986;5.696;2023-03-05T02:10:30;7.7;64.2
78455;SHT31;67751;51.986;5.696;2023-03-05T02:13:04;7.7;64.4
78455;SHT31;67751;51.986;5.696;2023-03-05T02:15:37;7.6;64.4
78455;SHT31;67751;51.986;5.696;2023-03-05T02:18:08;7.6;64.0
78455;SHT31;67751;51.986;5.696;2023-03-05T02:20:47;7.6;64.3
78455;SHT31;67751;51.986;5.696;2023-03-05T02:23:18;7.6;64.2
78455;SHT31;67751;51.986;5.696;2023-03-05T02:25:49;7.6;64.3
78455;SHT31;67751;51.986;5.696;2023-03-05T02:28:24;7.6;64.1
78455;SHT31;67751;51.986;5.696;2023-03-05T02:30:57;7.6;64.0
78455;SHT31;67751;51.986;5.696;2023-03-05T02:33:27;7.6;64.2
78455;SHT31;67751;51.986;5.696;2023-03-05T02:35:56;7.6;64.3
78455;SHT31;67751;51.986;5.696;2023-03-05T02:38:26;7.6;64.4
78455;SHT31;67751;51.986;5.696;2023-03-05T02:40:56;7.6;64.3
78455;SHT31;67751;51.986;5.696;2023-03-05T02:43:28;7.6;64.6
78455;SHT31;67751;51.986;5.696;2023-03-05T02:45:57;7.6;64.3
78455;SHT31;67751;51.986;5.696;2023-03-05T02:48:27;7.6;64.6
78455;SHT31;67751;51.986;5.696;2023-03-05T02:50:57;7.6;64.4
78455;SHT31;67751;51.986;5.696;2023-03-05T02:53:26;7.6;64.4
78455;SHT31;67751;51.986;5.696;2023-03-05T02:55:56;7.6;64.7
78455;SHT31;67751;51.986;5.696;2023-03-05T02:58:27;7.5;64.7
78455;SHT31;67751;51.986;5.696;2023-03-05T03:00:56;7.5;64.8
78455;SHT31;67751;51.986;5.696;2023-03-05T03:03:26;7.5;64.7
78455;SHT31;67751;51.986;5.696;2023-03-05T03:05:55;7.5;65.0
78455;SHT31;67751;51.986;5.696;2023-03-05T03:08:25;7.5;64.7
78455;SHT31;67751;51.986;5.696;2023-03-05T03:10:55;7.5;64.6
78455;SHT31;67751;51.986;5.696;2023-03-05T03:13:24;7.5;64.9
78455;SHT31;67751;51.986;5.696;2023-03-05T03:16:02;7.5;64.6
78455;SHT31;67751;51.986;5.696;2023-03-05T03:18:32;7.4;64.9
78455;SHT31;67751;51.986;5.696;2023-03-05T03:21:03;7.4;65.0
78455;SHT31;67751;51.986;5.696;2023-03-05T03:23:33;7.4;65.1
78455;SHT31;67751;51.986;5.696;2023-03-05T03:26:03;7.4;65.0
78455;SHT31;67751;51.986;5.696;2023-03-05T03:28:33;7.4;64.8
78455;SHT31;67751;51.986;5.696;2023-03-05T03:31:03;7.4;64.7
78455;SHT31;67751;51.986;5.696;2023-03-05T03:33:32;7.4;65.0
78455;SHT31;67751;51.986;5.696;2023-03-05T03:36:03;7.4;65.1
78455;SHT31;67751;51.986;5.696;2023-03-05T03:38:33;7.4;64.3
78455;SHT31;67751;51.986;5.696;2023-03-05T03:41:05;7.4;64.7
78455;SHT31;67751;51.986;5.696;2023-03-05T03:43:36;7.4;64.6
78455;SHT31;67751;51.986;5.696;2023-03-05T03:46:06;7.4;64.9
78455;SHT31;67751;51.986;5.696;2023-03-05T03:48:38;7.4;64.7
78455;SHT31;67751;51.986;5.696;2023-03-05T03:51:08;7.4;64.3
78455;SHT31;67751;51.986;5.696;2023-03-05T03:53:37;7.3;65.0
78455;SHT31;67751;51.986;5.696;2023-03-05T03:56:07;7.3;64.9
78455;SHT31;67751;51.986;5.696;2023-03-05T03:58:38;7.3;64.8
78455;SHT31;67751;51.986;5.696;2023-03-05T04:01:08;7.3;65.1
78455;SHT31;67751;51.986;5.696;2023-03-05T04:03:37;7.3;65.2
78455;SHT31;67751;51.986;5.696;2023-03-05T04:06:07;7.3;65.1
78455;SHT31;67751;51.986;5.696;2023-03-05T04:08:37;7.3;65.3
78455;SHT31;67751;51.986;5.696;2023-03-05T04:11:07;7.3;65.4
78455;SHT31;67751;51.986;5.696;2023-03-05T04:13:36;7.3;65.7
78455;SHT31;67751;51.986;5.696;2023-03-05T04:16:06;7.3;65.6
78455;SHT31;67751;51.986;5.696;2023-03-05T04:18:36;7.3;65.2
78455;SHT31;67751;51.986;5.696;2023-03-05T04:21:07;7.3;65.5
78455;SHT31;67751;51.986;5.696;2023-03-05T04:23:37;7.3;65.3
78455;SHT31;67751;51.986;5.696;2023-03-05T04:26:07;7.3;65.6
78455;SHT31;67751;51.986;5.696;2023-03-05T04:28:38;7.3;65.6
78455;SHT31;67751;51.986;5.696;2023-03-05T04:31:08;7.3;65.8
78455;SHT31;67751;51.986;5.696;2023-03-05T04:33:38;7.3;65.6
78455;SHT31;67751;51.986;5.696;2023-03-05T04:36:07;7.3;65.6
78455;SHT31;67751;51.986;5.696;2023-03-05T04:38:37;7.3;65.6
78455;SHT31;67751;51.986;5.696;2023-03-05T04:41:07;7.3;65.6
78455;SHT31;67751;51.986;5.696;2023-03-05T04:43:36;7.3;65.6
78455;SHT31;67751;51.986;5.696;2023-03-05T04:46:06;7.3;65.6
78455;SHT31;67751;51.986;5.696;2023-03-05T04:48:36;7.3;65.2
78455;SHT31;67751;51.986;5.696;2023-03-05T04:51:07;7.3;65.3
78455;SHT31;67751;51.986;5.696;2023-03-05T04:53:37;7.3;65.3
78455;SHT31;67751;51.986;5.696;2023-03-05T04:56:07;7.3;65.8
78455;SHT31;67751;51.986;5.696;2023-03-05T04:58:36;7.3;65.8
78455;SHT31;67751;51.986;5.696;2023-03-05T05:01:06;7.2;66.3
78455;SHT31;67751;51.986;5.696;2023-03-05T05:03:37;7.2;67.1
78455;SHT31;67751;51.986;5.696;2023-03-05T05:06:06;7.2;67.6
78455;SHT31;67751;51.986;5.696;2023-03-05T05:08:36;7.2;67.8
78455;SHT31;67751;51.986;5.696;2023-03-05T05:11:07;7.2;67.9
78455;SHT31;67751;51.986;5.696;2023-03-05T05:13:37;7.2;67.9
78455;SHT31;67751;51.986;5.696;2023-03-05T05:16:07;7.2;67.9
78455;SHT31;67751;51.986;5.696;2023-03-05T05:18:37;7.2;68.0
78455;SHT31;67751;51.986;5.696;2023-03-05T05:21:12;7.2;67.8
78455;SHT31;67751;51.986;5.696;2023-03-05T05:23:42;7.2;67.8
78455;SHT31;67751;51.986;5.696;2023-03-05T05:26:12;7.2;67.7
78455;SHT31;67751;51.986;5.696;2023-03-05T05:28:43;7.2;68.0
78455;SHT31;67751;51.986;5.696;2023-03-05T05:31:14;7.2;67.8
78455;SHT31;67751;51.986;5.696;2023-03-05T05:33:44;7.2;67.9
78455;SHT31;67751;51.986;5.696;2023-03-05T05:36:16;7.1;68.0
78455;SHT31;67751;51.986;5.696;2023-03-05T05:38:48;7.1;67.9
78455;SHT31;67751;51.986;5.696;2023-03-05T05:41:19;7.1;67.4
78455;SHT31;67751;51.986;5.696;2023-03-05T05:43:49;7.1;67.7
78455;SHT31;67751;51.986;5.696;2023-03-05T05:46:20;7.1;67.9
78455;SHT31;67751;51.986;5.696;2023-03-05T05:48:53;7.1;67.6
78455;SHT31;67751;51.986;5.696;2023-03-05T05:51:23;7.1;67.8
78455;SHT31;67751;51.986;5.696;2023-03-05T05:53:53;7.1;67.5
78455;SHT31;67751;51.986;5.696;2023-03-05T05:56:22;7.1;67.7
78455;SHT31;67751;51.986;5.696;2023-03-05T05:58:53;7.1;67.6
78455;SHT31;67751;51.986;5.696;2023-03-05T06:01:25;7.1;67.5
78455;SHT31;67751;51.986;5.696;2023-03-05T06:03:57;7.1;67.7
78455;SHT31;67751;51.986;5.696;2023-03-05T06:06:29;7.1;67.7
78455;SHT31;67751;51.986;5.696;2023-03-05T06:09:01;7.1;67.8
78455;SHT31;67751;51.986;5.696;2023-03-05T06:11:30;7.1;67.7
78455;SHT31;67751;51.986;5.696;2023-03-05T06:14:00;7.0;67.4
78455;SHT31;67751;51.986;5.696;2023-03-05T06:16:30;7.0;67.8
78455;SHT31;67751;51.986;5.696;2023-03-05T06:19:00;7.0;67.6
78455;SHT31;67751;51.986;5.696;2023-03-05T06:21:31;7.0;67.8
78455;SHT31;67751;51.986;5.696;2023-03-05T06:24:01;7.0;67.8
78455;SHT31;67751;51.986;5.696;2023-03-05T06:26:31;6.9;68.0
78455;SHT31;67751;51.986;5.696;2023-03-05T06:29:01;6.9;68.1
78455;SHT31;67751;51.986;5.696;2023-03-05T06:31:31;6.9;68.3
78455;SHT31;67751;51.986;5.696;2023-03-05T06:34:01;6.9;68.1
78455;SHT31;67751;51.986;5.696;2023-03-05T06:36:30;6.9;68.0
78455;SHT31;67751;51.986;5.696;2023-03-05T06:39:00;6.9;68.1
78455;SHT31;67751;51.986;5.696;2023-03-05T06:41:31;6.9;68.4
78455;SHT31;67751;51.986;5.696;2023-03-05T06:44:01;6.9;68.1
78455;SHT31;67751;51.986;5.696;2023-03-05T06:46:32;6.9;68.1
78455;SHT31;67751;51.986;5.696;2023-03-05T06:49:03;6.9;68.6
78455;SHT31;67751;51.986;5.696;2023-03-05T06:51:35;6.9;68.6
78455;SHT31;67751;51.986;5.696;2023-03-05T06:54:08;6.9;68.9
78455;SHT31;67751;51.986;5.696;2023-03-05T06:56:39;6.9;68.9
78455;SHT31;67751;51.986;5.696;2023-03-05T06:59:10;6.9;69.0
78455;SHT31;67751;51.986;5.696;2023-03-05T07:01:41;6.9;69.3
78455;SHT31;67751;51.986;5.696;2023-03-05T07:04:12;6.9;68.9
78455;SHT31;67751;51.986;5.696;2023-03-05T07:06:43;6.9;68.6
78455;SHT31;67751;51.986;5.696;2023-03-05T07:09:15;6.9;68.3
78455;SHT31;67751;51.986;5.696;2023-03-05T07:11:44;6.9;67.9
78455;SHT31;67751;51.986;5.696;2023-03-05T07:14:14;6.9;68.3
78455;SHT31;67751;51.986;5.696;2023-03-05T07:16:43;6.9;68.5
78455;SHT31;67751;51.986;5.696;2023-03-05T07:19:13;7.0;68.8
78455;SHT31;67751;51.986;5.696;2023-03-05T07:21:43;7.0;69.0
78455;SHT31;67751;51.986;5.696;2023-03-05T07:24:13;7.0;69.0
78455;SHT31;67751;51.986;5.696;2023-03-05T07:26:42;7.0;68.3
78455;SHT31;67751;51.986;5.696;2023-03-05T07:29:14;7.1;68.3
78455;SHT31;67751;51.986;5.696;2023-03-05T07:31:43;7.1;68.5
78455;SHT31;67751;51.986;5.696;2023-03-05T07:34:13;7.1;68.9
78455;SHT31;67751;51.986;5.696;2023-03-05T07:36:42;7.1;68.7
78455;SHT31;67751;51.986;5.696;2023-03-05T07:39:13;7.1;69.1
78455;SHT31;67751;51.986;5.696;2023-03-05T07:41:44;7.1;68.7
78455;SHT31;67751;51.986;5.696;2023-03-05T07:44:14;7.1;68.6
78455;SHT31;67751;51.986;5.696;2023-03-05T07:46:43;7.1;69.3
78455;SHT31;67751;51.986;5.696;2023-03-05T07:49:13;7.2;68.8
78455;SHT31;67751;51.986;5.696;2023-03-05T07:51:43;7.2;68.9
78455;SHT31;67751;51.986;5.696;2023-03-05T07:54:15;7.2;68.7
78455;SHT31;67751;51.986;5.696;2023-03-05T07:56:46;7.2;68.8
78455;SHT31;67751;51.986;5.696;2023-03-05T07:59:16;7.2;68.6
78455;SHT31;67751;51.986;5.696;2023-03-05T08:01:45;7.2;67.4
78455;SHT31;67751;51.986;5.696;2023-03-05T08:04:15;7.2;67.7
78455;SHT31;67751;51.986;5.696;2023-03-05T08:06:44;7.2;68.4
78455;SHT31;67751;51.986;5.696;2023-03-05T08:09:16;7.2;68.6
78455;SHT31;67751;51.986;5.696;2023-03-05T08:11:46;7.2;67.7
78455;SHT31;67751;51.986;5.696;2023-03-05T08:14:17;7.2;68.0
78455;SHT31;67751;51.986;5.696;2023-03-05T08:16:47;7.1;67.6
78455;SHT31;67751;51.986;5.696;2023-03-05T08:19:19;7.1;67.7
78455;SHT31;67751;51.986;5.696;2023-03-05T08:21:49;7.1;67.8
78455;SHT31;67751;51.986;5.696;2023-03-05T08:24:19;7.1;67.9
78455;SHT31;67751;51.986;5.696;2023-03-05T08:26:49;7.1;68.8
78455;SHT31;67751;51.986;5.696;2023-03-05T08:29:21;7.1;68.0
78455;SHT31;67751;51.986;5.696;2023-03-05T08:31:52;7.1;69.4
78455;SHT31;67751;51.986;5.696;2023-03-05T08:34:24;7.1;69.4
78455;SHT31;67751;51.986;5.696;2023-03-05T08:36:56;7.1;70.1
78455;SHT31;67751;51.986;5.696;2023-03-05T08:39:25;7.1;70.1
78455;SHT31;67751;51.986;5.696;2023-03-05T08:41:56;7.1;70.2
78455;SHT31;67751;51.986;5.696;2023-03-05T08:44:26;7.2;69.9
78455;SHT31;67751;51.986;5.696;2023-03-05T08:46:55;7.2;70.1
78455;SHT31;67751;51.986;5.696;2023-03-05T08:49:25;7.2;69.4
78455;SHT31;67751;51.986;5.696;2023-03-05T08:51:54;7.2;70.4
78455;SHT31;67751;51.986;5.696;2023-03-05T08:54:24;7.2;70.2
78455;SHT31;67751;51.986;5.696;2023-03-05T08:56:53;7.2;70.1
78455;SHT31;67751;51.986;5.696;2023-03-05T08:59:23;7.2;70.4
78455;SHT31;67751;51.986;5.696;2023-03-05T09:01:52;7.3;69.4
78455;SHT31;67751;51.986;5.696;2023-03-05T09:04:24;7.3;69.7
78455;SHT31;67751;51.986;5.696;2023-03-05T09:06:55;7.3;70.3
78455;SHT31;67751;51.986;5.696;2023-03-05T09:09:25;7.3;69.7
78455;SHT31;67751;51.986;5.696;2023-03-05T09:11:56;7.3;70.1
78455;SHT31;67751;51.986;5.696;2023-03-05T09:14:26;7.3;69.6
78455;SHT31;67751;51.986;5.696;2023-03-05T09:16:57;7.4;69.8
78455;SHT31;67751;51.986;5.696;2023-03-05T09:19:26;7.4;68.8
78455;SHT31;67751;51.986;5.696;2023-03-05T09:21:56;7.4;68.1
78455;SHT31;67751;51.986;5.696;2023-03-05T09:24:25;7.4;68.6
78455;SHT31;67751;51.986;5.696;2023-03-05T09:26:59;7.4;68.1
78455;SHT31;67751;51.986;5.696;2023-03-05T09:29:29;7.5;67.9
78455;SHT31;67751;51.986;5.696;2023-03-05T09:32:01;7.5;66.8
78455;SHT31;67751;51.986;5.696;2023-03-05T09:34:30;7.5;66.8
78455;SHT31;67751;51.986;5.696;2023-03-05T09:37:02;7.5;66.5
78455;SHT31;67751;51.986;5.696;2023-03-05T09:39:31;7.5;67.7
78455;SHT31;67751;51.986;5.696;2023-03-05T09:42:33;7.5;67.2
78455;SHT31;67751;51.986;5.696;2023-03-05T09:45:17;7.5;65.7
78455;SHT31;67751;51.986;5.696;2023-03-05T09:47:54;7.5;65.6
78455;SHT31;67751;51.986;5.696;2023-03-05T09:50:37;7.5;67.7
78455;SHT31;67751;51.986;5.696;2023-03-05T09:53:22;7.6;66.1
78455;SHT31;67751;51.986;5.696;2023-03-05T09:55:56;7.6;65.2
78455;SHT31;67751;51.986;5.696;2023-03-05T09:58:35;7.6;67.6
78455;SHT31;67751;51.986;5.696;2023-03-05T10:01:10;7.6;66.4
78455;SHT31;67751;51.986;5.696;2023-03-05T10:03:53;7.6;67.0
78455;SHT31;67751;51.986;5.696;2023-03-05T10:06:27;7.7;67.3
78455;SHT31;67751;51.986;5.696;2023-03-05T10:09:05;7.7;66.4
78455;SHT31;67751;51.986;5.696;2023-03-05T10:11:44;7.7;66.7
78455;SHT31;67751;51.986;5.696;2023-03-05T10:14:25;7.7;66.4
78455;SHT31;67751;51.986;5.696;2023-03-05T10:17:02;7.7;64.3
78455;SHT31;67751;51.986;5.696;2023-03-05T10:20:21;7.8;63.8
78455;SHT31;67751;51.986;5.696;2023-03-05T10:23:21;7.8;64.6
78455;SHT31;67751;51.986;5.696;2023-03-05T10:26:01;7.8;66.3
78455;SHT31;67751;51.986;5.696;2023-03-05T10:28:45;7.8;64.5
78455;SHT31;67751;51.986;5.696;2023-03-05T10:31:41;7.8;63.8
78455;SHT31;67751;51.986;5.696;2023-03-05T10:34:26;7.8;64.0
78455;SHT31;67751;51.986;5.696;2023-03-05T10:37:19;7.9;63.7
78455;SHT31;67751;51.986;5.696;2023-03-05T10:40:00;7.9;63.6
78455;SHT31;67751;51.986;5.696;2023-03-05T10:42:44;7.9;63.7
78455;SHT31;67751;51.986;5.696;2023-03-05T10:45:18;8.0;64.3
78455;SHT31;67751;51.986;5.696;2023-03-05T10:47:54;8.0;64.4
78455;SHT31;67751;51.986;5.696;2023-03-05T10:50:29;8.0;63.9
78455;SHT31;67751;51.986;5.696;2023-03-05T10:53:07;8.0;64.8
78455;SHT31;67751;51.986;5.696;2023-03-05T10:55:41;8.1;63.4
78455;SHT31;67751;51.986;5.696;2023-03-05T10:58:12;8.1;63.5
78455;SHT31;67751;51.986;5.696;2023-03-05T11:01:00;8.1;64.1
78455;SHT31;67751;51.986;5.696;2023-03-05T11:03:48;8.1;63.2
78455;SHT31;67751;51.986;5.696;2023-03-05T11:06:29;8.1;61.9
78455;SHT31;67751;51.986;5.696;2023-03-05T11:09:15;8.1;62.2
78455;SHT31;67751;51.986;5.696;2023-03-05T11:12:05;8.1;62.3
78455;SHT31;67751;51.986;5.696;2023-03-05T11:14:40;8.1;60.6
78455;SHT31;67751;51.986;5.696;2023-03-05T11:17:28;8.1;60.2
78455;SHT31;67751;51.986;5.696;2023-03-05T11:25:13;8.2;62.3
78455;SHT31;67751;51.986;5.696;2023-03-05T11:27:50;8.2;62.3
78455;SHT31;67751;51.986;5.696;2023-03-05T11:30:25;8.2;59.3
78455;SHT31;67751;51.986;5.696;2023-03-05T11:33:08;8.3;60.2
78455;SHT31;67751;51.986;5.696;2023-03-05T11:35:40;8.3;59.1
78455;SHT31;67751;51.986;5.696;2023-03-05T11:38:17;8.3;60.5
78455;SHT31;67751;51.986;5.696;2023-03-05T11:40:48;8.3;60.3
78455;SHT31;67751;51.986;5.696;2023-03-05T11:43:21;8.3;60.7
78455;SHT31;67751;51.986;5.696;2023-03-05T11:45:54;8.4;58.9
78455;SHT31;67751;51.986;5.696;2023-03-05T11:48:31;8.4;59.5
78455;SHT31;67751;51.986;5.696;2023-03-05T11:51:07;8.4;61.7
78455;SHT31;67751;51.986;5.696;2023-03-05T11:53:39;8.4;59.4
78455;SHT31;67751;51.986;5.696;2023-03-05T11:56:20;8.5;60.1
78455;SHT31;67751;51.986;5.696;2023-03-05T11:59:00;8.5;57.6
78455;SHT31;67751;51.986;5.696;2023-03-05T12:01:34;8.5;58.0
78455;SHT31;67751;51.986;5.696;2023-03-05T12:04:06;8.5;57.4
78455;SHT31;67751;51.986;5.696;2023-03-05T12:06:40;8.5;58.4
78455;SHT31;67751;51.986;5.696;2023-03-05T12:09:17;8.6;59.1
78455;SHT31;67751;51.986;5.696;2023-03-05T12:11:54;8.6;58.2
78455;SHT31;67751;51.986;5.696;2023-03-05T12:14:34;8.6;56.4
78455;SHT31;67751;51.986;5.696;2023-03-05T12:17:11;8.7;54.7
78455;SHT31;67751;51.986;5.696;2023-03-05T12:19:53;8.7;54.0
78455;SHT31;67751;51.986;5.696;2023-03-05T12:22:33;8.7;53.0
78455;SHT31;67751;51.986;5.696;2023-03-05T12:25:30;8.7;52.6
78455;SHT31;67751;51.986;5.696;2023-03-05T12:28:01;8.7;54.6
78455;SHT31;67751;51.986;5.696;2023-03-05T12:30:55;8.7;56.5
78455;SHT31;67751;51.986;5.696;2023-03-05T12:33:33;8.8;55.4
78455;SHT31;67751;51.986;5.696;2023-03-05T12:36:37;8.8;56.0
78455;SHT31;67751;51.986;5.696;2023-03-05T12:39:45;8.8;57.4
78455;SHT31;67751;51.986;5.696;2023-03-05T12:42:43;8.8;57.0
78455;SHT31;67751;51.986;5.696;2023-03-05T12:45:37;8.8;57.6
78455;SHT31;67751;51.986;5.696;2023-03-05T12:48:40;8.9;58.3
78455;SHT31;67751;51.986;5.696;2023-03-05T12:51:33;8.9;57.7
78455;SHT31;67751;51.986;5.696;2023-03-05T12:54:26;8.9;55.7
78455;SHT31;67751;51.986;5.696;2023-03-05T12:56:58;9.0;56.2
78455;SHT31;67751;51.986;5.696;2023-03-05T12:59:37;9.0;56.4
78455;SHT31;67751;51.986;5.696;2023-03-05T13:02:22;9.0;57.0
78455;SHT31;67751;51.986;5.696;2023-03-05T13:05:01;9.1;54.2
78455;SHT31;67751;51.986;5.696;2023-03-05T13:07:31;9.1;55.2
78455;SHT31;67751;51.986;5.696;2023-03-05T13:10:01;9.1;53.6
78455;SHT31;67751;51.986;5.696;2023-03-05T13:12:33;9.1;56.7
78455;SHT31;67751;51.986;5.696;2023-03-05T13:15:05;9.1;56.2
78455;SHT31;67751;51.986;5.696;2023-03-05T13:17:40;9.1;56.2
78455;SHT31;67751;51.986;5.696;2023-03-05T13:20:26;9.1;55.9
78455;SHT31;67751;51.986;5.696;2023-03-05T13:23:32;9.1;55.6
78455;SHT31;67751;51.986;5.696;2023-03-05T13:26:12;9.1;55.1
78455;SHT31;67751;51.986;5.696;2023-03-05T13:29:06;9.1;54.8
78455;SHT31;67751;51.986;5.696;2023-03-05T13:31:40;9.1;54.5
78455;SHT31;67751;51.986;5.696;2023-03-05T13:34:15;9.1;54.3
78455;SHT31;67751;51.986;5.696;2023-03-05T13:36:54;9.2;54.9
78455;SHT31;67751;51.986;5.696;2023-03-05T13:39:28;9.2;54.8
78455;SHT31;67751;51.986;5.696;2023-03-05T13:42:01;9.2;55.2
78455;SHT31;67751;51.986;5.696;2023-03-05T13:44:33;9.2;56.4
78455;SHT31;67751;51.986;5.696;2023-03-05T13:47:15;9.2;55.8
78455;SHT31;67751;51.986;5.696;2023-03-05T13:49:46;9.2;54.4
78455;SHT31;67751;51.986;5.696;2023-03-05T13:52:29;9.2;55.1
78455;SHT31;67751;51.986;5.696;2023-03-05T13:55:00;9.2;55.4
78455;SHT31;67751;51.986;5.696;2023-03-05T13:57:35;9.2;53.2
78455;SHT31;67751;51.986;5.696;2023-03-05T14:00:22;9.2;53.1
78455;SHT31;67751;51.986;5.696;2023-03-05T14:02:44;9.2;53.8
78455;SHT31;67751;51.986;5.696;2023-03-05T14:05:15;9.2;52.2
78455;SHT31;67751;51.986;5.696;2023-03-05T14:07:47;9.2;53.1
78455;SHT31;67751;51.986;5.696;2023-03-05T14:10:28;9.2;54.7
78455;SHT31;67751;51.986;5.696;2023-03-05T14:13:02;9.2;54.0
78455;SHT31;67751;51.986;5.696;2023-03-05T14:15:34;9.2;53.6
78455;SHT31;67751;51.986;5.696;2023-03-05T14:18:40;9.2;53.8
78455;SHT31;67751;51.986;5.696;2023-03-05T14:21:13;9.1;53.3
78455;SHT31;67751;51.986;5.696;2023-03-05T14:23:44;9.1;54.9
78455;SHT31;67751;51.986;5.696;2023-03-05T14:26:24;9.1;54.7
78455;SHT31;67751;51.986;5.696;2023-03-05T14:28:56;9.1;55.2
78455;SHT31;67751;51.986;5.696;2023-03-05T14:31:30;9.1;54.6
78455;SHT31;67751;51.986;5.696;2023-03-05T14:34:04;9.1;55.8
78455;SHT31;67751;51.986;5.696;2023-03-05T14:36:34;9.1;55.6
78455;SHT31;67751;51.986;5.696;2023-03-05T14:39:05;9.1;55.7
78455;SHT31;67751;51.986;5.696;2023-03-05T14:41:41;9.1;55.9
78455;SHT31;67751;51.986;5.696;2023-03-05T14:44:13;9.1;52.5
78455;SHT31;67751;51.986;5.696;2023-03-05T14:46:47;9.1;54.6
78455;SHT31;67751;51.986;5.696;2023-03-05T14:49:17;9.1;54.6
78455;SHT31;67751;51.986;5.696;2023-03-05T14:51:47;9.0;54.5
78455;SHT31;67751;51.986;5.696;2023-03-05T14:54:22;9.0;52.7
78455;SHT31;67751;51.986;5.696;2023-03-05T14:56:52;9.0;54.2
78455;SHT31;67751;51.986;5.696;2023-03-05T14:59:22;9.0;54.5
78455;SHT31;67751;51.986;5.696;2023-03-05T15:01:51;9.0;54.0
78455;SHT31;67751;51.986;5.696;2023-03-05T15:04:21;9.0;54.6
78455;SHT31;67751;51.986;5.696;2023-03-05T15:06:50;8.9;55.1
78455;SHT31;67751;51.986;5.696;2023-03-05T15:09:20;8.9;55.3
78455;SHT31;67751;51.986;5.696;2023-03-05T15:11:52;8.9;54.2
78455;SHT31;67751;51.986;5.696;2023-03-05T15:14:21;8.9;53.7
78455;SHT31;67751;51.986;5.696;2023-03-05T15:16:51;8.9;54.9
78455;SHT31;67751;51.986;5.696;2023-03-05T15:19:20;8.9;55.4
78455;SHT31;67751;51.986;5.696;2023-03-05T15:21:52;8.9;55.8
78455;SHT31;67751;51.986;5.696;2023-03-05T15:24:21;8.9;56.1
78455;SHT31;67751;51.986;5.696;2023-03-05T15:26:51;8.9;55.5
78455;SHT31;67751;51.986;5.696;2023-03-05T15:29:20;8.9;56.3
78455;SHT31;67751;51.986;5.696;2023-03-05T15:31:53;8.9;56.4
78455;SHT31;67751;51.986;5.696;2023-03-05T15:34:23;8.9;56.0
78455;SHT31;67751;51.986;5.696;2023-03-05T15:36:52;8.9;56.1
78455;SHT31;67751;51.986;5.696;2023-03-05T15:39:22;8.9;56.0
78455;SHT31;67751;51.986;5.696;2023-03-05T15:41:53;8.9;56.2
78455;SHT31;67751;51.986;5.696;2023-03-05T15:44:24;8.9;56.6
78455;SHT31;67751;51.986;5.696;2023-03-05T15:46:54;8.9;55.5
78455;SHT31;67751;51.986;5.696;2023-03-05T15:49:25;8.9;57.6
78455;SHT31;67751;51.986;5.696;2023-03-05T15:51:54;8.9;56.3
78455;SHT31;67751;51.986;5.696;2023-03-05T15:54:24;8.9;56.4
78455;SHT31;67751;51.986;5.696;2023-03-05T15:56:54;8.9;57.1
78455;SHT31;67751;51.986;5.696;2023-03-05T15:59:24;8.9;57.1
78455;SHT31;67751;51.986;5.696;2023-03-05T16:01:54;8.9;56.3
78455;SHT31;67751;51.986;5.696;2023-03-05T16:04:23;8.9;57.6
78455;SHT31;67751;51.986;5.696;2023-03-05T16:06:57;8.9;57.5
78455;SHT31;67751;51.986;5.696;2023-03-05T16:09:33;8.9;56.5
78455;SHT31;67751;51.986;5.696;2023-03-05T16:12:08;8.8;56.3
78455;SHT31;67751;51.986;5.696;2023-03-05T16:14:39;8.8;57.2
78455;SHT31;67751;51.986;5.696;2023-03-05T16:17:09;8.8;57.5
78455;SHT31;67751;51.986;5.696;2023-03-05T16:19:43;8.8;57.1
78455;SHT31;67751;51.986;5.696;2023-03-05T16:22:14;8.7;57.6
78455;SHT31;67751;51.986;5.696;2023-03-05T16:24:43;8.7;57.7
78455;SHT31;67751;51.986;5.696;2023-03-05T16:27:13;8.7;57.2
78455;SHT31;67751;51.986;5.696;2023-03-05T16:29:42;8.7;55.9
78455;SHT31;67751;51.986;5.696;2023-03-05T16:32:13;8.7;57.1
78455;SHT31;67751;51.986;5.696;2023-03-05T16:34:44;8.6;57.9
78455;SHT31;67751;51.986;5.696;2023-03-05T16:37:17;8.6;57.6
78455;SHT31;67751;51.986;5.696;2023-03-05T16:39:48;8.6;57.8
78455;SHT31;67751;51.986;5.696;2023-03-05T16:42:18;8.6;58.0
78455;SHT31;67751;51.986;5.696;2023-03-05T16:44:47;8.6;57.6
78455;SHT31;67751;51.986;5.696;2023-03-05T16:47:18;8.6;58.1
78455;SHT31;67751;51.986;5.696;2023-03-05T16:49:48;8.6;58.3
78455;SHT31;67751;51.986;5.696;2023-03-05T16:52:18;8.6;57.0
78455;SHT31;67751;51.986;5.696;2023-03-05T16:54:48;8.6;58.7
78455;SHT31;67751;51.986;5.696;2023-03-05T16:57:18;8.6;58.9
78455;SHT31;67751;51.986;5.696;2023-03-05T16:59:50;8.6;59.3
78455;SHT31;67751;51.986;5.696;2023-03-05T17:02:22;8.5;59.3